Hood Army Air Field Fort Hood(Killeen) US
ICAO: KHLR
IATA: HLR
Category: Medium
Scheduled Services: No

Elevation: 924 ft
TransAlt. 18000 ft.

Airport Communications:
GRAY APP/DEP:120.075
CLNC DEL:22.54
GND:133.85
RANGE CON:30.45
FORT HOOD FLT FLW:143.1
PMSV GRAY METRO:41.2
TWR:119.65

KHLR Zoom In..

If Map Doesn't Load, Click Here

Runways:

(A) RW 16 length 3701 ft width 144 ft
---- / hdg 158

(B) RW 34 length 3701 ft width 144 ft
---- / hdg 338

Location; KHLR
Day. 26 / Time. 10.58 Zulu
* Altimeter: 29.96
* Temperature: 24° c. 75.2°f.
* Wind from: 000° Speed 00 kn.
Dewpoint: 23° c.
Visibility: 10 Statute Miles.
Clouds: Clear (automated report).

KHLR 261058Z AUTO 00000KT 10SM CLR 24/23 A2996 RMK AO2 SLP133 T02400228


Wind - Calm.

 
 
jpsmedia.com for Web Design worldairports.se 2018   terms of use